This is the latest recevied weather packets stored in our database for station/object VE2JJ-13. If no packets are shown the sender has not sent any weather packets the latest 10 day(s).
| Time | Temp. | Humidity | Pressure | Rain* | Wind** | Luminosity | Snow |
|---|---|---|---|---|---|---|---|
| 1777834912 | 11.67° C | 42% | 1000.6 hPa | 0 mm | - | - | - |
| 1777834613 | 12.22° C | 43% | 1000.6 hPa | 0 mm | - | - | - |
| 1777834283 | 11.67° C | 43% | 1000.7 hPa | 0 mm | - | - | - |
| 1777833684 | 12.78° C | 41% | 1000.7 hPa | 0 mm | - | - | - |
| 1777833380 | 11.11° C | 42% | 1001 hPa | 0 mm | - | - | - |
| 1777833082 | 11.11° C | 45% | 1001 hPa | 0 mm | - | - | - |
| 1777832784 | 10.56° C | 46% | 1001.1 hPa | 0 mm | - | - | - |
| 1777832482 | 11.11° C | 45% | 1001.1 hPa | 0 mm | - | - | - |
| 1777832181 | 11.11° C | 43% | 1001.2 hPa | 0 mm | - | - | - |
| 1777831522 | 11.11° C | 45% | 1001.2 hPa | 0 mm | - | - | - |
| 1777831223 | 11.11° C | 45% | 1001.1 hPa | 0 mm | - | - | - |
| 1777830894 | 11.67° C | 44% | 1001.1 hPa | 0 mm | - | - | - |
| 1777830561 | 11.67° C | 42% | 1001.2 hPa | 0 mm | - | - | - |
| 1777829031 | 10.56° C | 47% | 1001.5 hPa | 0 mm | - | - | - |
| 1777826270 | 11.67° C | 46% | 1002.1 hPa | 0 mm | - | - | - |
| 1777825672 | 11.11° C | 46% | 1002.4 hPa | 0 mm | - | - | - |
| 1777825342 | 11.11° C | 45% | 1002.4 hPa | 0 mm | - | - | - |
| 1777825049 | 11.67° C | 45% | 1002.4 hPa | 0 mm | - | - | - |
| 1777824740 | 11.67° C | 45% | 1002.6 hPa | 0 mm | - | - | - |
| 1777824413 | 11.67° C | 44% | 1002.6 hPa | 0 mm | - | - | - |
| 1777824110 | 10.56° C | 48% | 1002.6 hPa | 0 mm | - | - | - |
| 1777823818 | 10.56° C | 46% | 1002.6 hPa | 0 mm | - | - | - |
| 1777823151 | 10.56° C | 44% | 1002.7 hPa | 0 mm | - | - | - |
| 1777821291 | 11.67° C | 44% | 1003.1 hPa | 0 mm | - | - | - |
| 1777818681 | 10.56° C | 46% | 1003.4 hPa | 0 mm | - | - | - |
* Rain latest hour (hover to see other rain measurements)
** Current wind speed in m/s (hover to see current wind gust speed)